Sao Jose Dos Campos, Brazil
Current Conditions -  °F | °C
As of 12:00 AM on Monday 20 Oct 2014 (Local Time) from SBSJ Reporting Station
Scattered Clouds Scattered Clouds  
Wind Chill: 70°   Ceiling: Unl
Heat Index: 70°   Visibility: 5mi
Dew Point: 64°   Wind: 2mph
Humidity: 83%   Direction: 150°SSE
Pressure: 30.15"   Gusts: NA
Location:  23.2°S, 45.88°W
Report Text: SBSJ 200300Z 15002KT 8000 SCT020 21/18 Q1021
Loading
Personal Weather Stations






























Interactive Weather Map
Tropical Storm Tracking
New forecast layout! Learn more

10-Day Weather Forecast

Advertisements
Track Severe Weather on mobile